sensor_id;sensor_type;location;lat;lon;timestamp;P1;durP1;ratioP1;P2;durP2;ratioP2
43690;SDS011;29293;52.190;21.226;2022-08-25T00:00:13;19.30;;;3.80;;
43690;SDS011;29293;52.190;21.226;2022-08-25T00:15:39;18.50;;;4.40;;
43690;SDS011;29293;52.190;21.226;2022-08-25T00:30:45;14.00;;;3.80;;
43690;SDS011;29293;52.190;21.226;2022-08-25T00:45:51;13.20;;;3.90;;
43690;SDS011;29293;52.190;21.226;2022-08-25T01:00:57;11.10;;;3.30;;
43690;SDS011;29293;52.190;21.226;2022-08-25T01:16:03;17.90;;;4.00;;
43690;SDS011;29293;52.190;21.226;2022-08-25T01:31:10;19.20;;;5.20;;
43690;SDS011;29293;52.190;21.226;2022-08-25T01:46:15;13.20;;;4.70;;
43690;SDS011;29293;52.190;21.226;2022-08-25T02:01:22;17.60;;;4.80;;
43690;SDS011;29293;52.190;21.226;2022-08-25T02:16:29;14.80;;;4.90;;
43690;SDS011;29293;52.190;21.226;2022-08-25T02:31:38;23.40;;;5.90;;
43690;SDS011;29293;52.190;21.226;2022-08-25T02:46:44;22.00;;;6.50;;
43690;SDS011;29293;52.190;21.226;2022-08-25T03:01:50;18.00;;;6.00;;
43690;SDS011;29293;52.190;21.226;2022-08-25T03:16:56;19.80;;;6.50;;
43690;SDS011;29293;52.190;21.226;2022-08-25T03:32:02;21.00;;;6.80;;
43690;SDS011;29293;52.190;21.226;2022-08-25T03:47:09;21.80;;;7.40;;
43690;SDS011;29293;52.190;21.226;2022-08-25T04:02:15;29.80;;;8.10;;
43690;SDS011;29293;52.190;21.226;2022-08-25T04:17:21;26.30;;;8.10;;
43690;SDS011;29293;52.190;21.226;2022-08-25T04:32:27;40.30;;;9.40;;
43690;SDS011;29293;52.190;21.226;2022-08-25T04:47:36;27.80;;;8.90;;
43690;SDS011;29293;52.190;21.226;2022-08-25T05:02:42;41.70;;;9.50;;
43690;SDS011;29293;52.190;21.226;2022-08-25T05:17:48;30.10;;;8.90;;
43690;SDS011;29293;52.190;21.226;2022-08-25T05:32:54;31.10;;;8.70;;
43690;SDS011;29293;52.190;21.226;2022-08-25T05:48:00;31.40;;;8.60;;
43690;SDS011;29293;52.190;21.226;2022-08-25T06:03:06;26.30;;;8.70;;
43690;SDS011;29293;52.190;21.226;2022-08-25T06:18:13;28.70;;;8.00;;
43690;SDS011;29293;52.190;21.226;2022-08-25T06:33:19;29.30;;;8.30;;
43690;SDS011;29293;52.190;21.226;2022-08-25T06:48:25;27.60;;;7.80;;
43690;SDS011;29293;52.190;21.226;2022-08-25T07:03:31;23.90;;;7.30;;
43690;SDS011;29293;52.190;21.226;2022-08-25T07:18:37;20.40;;;7.30;;
43690;SDS011;29293;52.190;21.226;2022-08-25T07:33:43;17.80;;;6.80;;
43690;SDS011;29293;52.190;21.226;2022-08-25T07:49:03;19.00;;;7.10;;
43690;SDS011;29293;52.190;21.226;2022-08-25T08:04:10;19.50;;;6.80;;
43690;SDS011;29293;52.190;21.226;2022-08-25T08:19:15;15.60;;;6.90;;
43690;SDS011;29293;52.190;21.226;2022-08-25T08:34:22;15.80;;;5.80;;
43690;SDS011;29293;52.190;21.226;2022-08-25T08:49:29;15.50;;;5.70;;
43690;SDS011;29293;52.190;21.226;2022-08-25T09:04:41;15.10;;;5.00;;
43690;SDS011;29293;52.190;21.226;2022-08-25T09:35:18;14.90;;;4.70;;
43690;SDS011;29293;52.190;21.226;2022-08-25T09:50:29;10.40;;;3.30;;
43690;SDS011;29293;52.190;21.226;2022-08-25T10:05:38;9.10;;;3.20;;
43690;SDS011;29293;52.190;21.226;2022-08-25T10:21:11;12.60;;;3.00;;
43690;SDS011;29293;52.190;21.226;2022-08-25T10:36:19;10.70;;;3.30;;
43690;SDS011;29293;52.190;21.226;2022-08-25T10:51:40;8.70;;;2.90;;
43690;SDS011;29293;52.190;21.226;2022-08-25T11:06:55;6.60;;;3.10;;
43690;SDS011;29293;52.190;21.226;2022-08-25T11:22:10;7.90;;;2.90;;
43690;SDS011;29293;52.190;21.226;2022-08-25T11:37:20;12.50;;;2.90;;
43690;SDS011;29293;52.190;21.226;2022-08-25T11:52:42;12.20;;;3.00;;
43690;SDS011;29293;52.190;21.226;2022-08-25T12:07:59;6.90;;;2.90;;
43690;SDS011;29293;52.190;21.226;2022-08-25T12:23:27;9.60;;;3.20;;
43690;SDS011;29293;52.190;21.226;2022-08-25T12:38:37;6.40;;;2.70;;
43690;SDS011;29293;52.190;21.226;2022-08-25T12:53:48;8.40;;;2.90;;
43690;SDS011;29293;52.190;21.226;2022-08-25T13:24:40;6.60;;;2.60;;
43690;SDS011;29293;52.190;21.226;2022-08-25T13:39:49;7.00;;;2.90;;
43690;SDS011;29293;52.190;21.226;2022-08-25T13:55:09;5.70;;;2.70;;
43690;SDS011;29293;52.190;21.226;2022-08-25T14:10:32;7.70;;;2.70;;
43690;SDS011;29293;52.190;21.226;2022-08-25T14:25:41;4.90;;;2.80;;
43690;SDS011;29293;52.190;21.226;2022-08-25T14:40:47;7.40;;;3.00;;
43690;SDS011;29293;52.190;21.226;2022-08-25T14:55:53;10.40;;;2.70;;
43690;SDS011;29293;52.190;21.226;2022-08-25T15:26:04;6.40;;;2.70;;
43690;SDS011;29293;52.190;21.226;2022-08-25T15:41:13;8.10;;;2.50;;
43690;SDS011;29293;52.190;21.226;2022-08-25T15:56:19;5.30;;;2.40;;
43690;SDS011;29293;52.190;21.226;2022-08-25T16:11:26;8.60;;;2.60;;
43690;SDS011;29293;52.190;21.226;2022-08-25T18:39:27;8.60;;;3.40;;
43690;SDS011;29293;52.190;21.226;2022-08-25T18:54:59;8.40;;;3.20;;
43690;SDS011;29293;52.190;21.226;2022-08-25T19:10:15;8.00;;;3.40;;
43690;SDS011;29293;52.190;21.226;2022-08-25T19:25:22;7.60;;;3.60;;
43690;SDS011;29293;52.190;21.226;2022-08-25T19:40:29;10.10;;;3.80;;
43690;SDS011;29293;52.190;21.226;2022-08-25T19:55:34;7.50;;;3.40;;
43690;SDS011;29293;52.190;21.226;2022-08-25T20:10:41;11.20;;;3.90;;
43690;SDS011;29293;52.190;21.226;2022-08-25T20:25:48;7.30;;;3.90;;
43690;SDS011;29293;52.190;21.226;2022-08-25T20:40:53;8.10;;;3.60;;
43690;SDS011;29293;52.190;21.226;2022-08-25T20:55:59;9.00;;;4.00;;
43690;SDS011;29293;52.190;21.226;2022-08-25T21:11:07;9.80;;;4.40;;
43690;SDS011;29293;52.190;21.226;2022-08-25T21:41:20;10.90;;;4.20;;
43690;SDS011;29293;52.190;21.226;2022-08-25T21:56:27;9.70;;;4.50;;
43690;SDS011;29293;52.190;21.226;2022-08-25T22:11:33;10.30;;;4.20;;
43690;SDS011;29293;52.190;21.226;2022-08-25T22:26:39;11.10;;;5.00;;
43690;SDS011;29293;52.190;21.226;2022-08-25T22:41:45;12.70;;;5.10;;
43690;SDS011;29293;52.190;21.226;2022-08-25T22:56:50;12.90;;;5.20;;
43690;SDS011;29293;52.190;21.226;2022-08-25T23:12:18;11.60;;;5.10;;
43690;SDS011;29293;52.190;21.226;2022-08-25T23:54:36;12.60;;;5.60;;
